sensor_id;sensor_type;location;lat;lon;timestamp;P1;durP1;ratioP1;P2;durP2;ratioP2
3747;SDS011;1889;50.058;8.688;2024-02-15T00:01:05;6.50;;;3.92;;
3747;SDS011;1889;50.058;8.688;2024-02-15T00:03:35;5.15;;;4.58;;
3747;SDS011;1889;50.058;8.688;2024-02-15T00:08:45;4.83;;;3.83;;
3747;SDS011;1889;50.058;8.688;2024-02-15T00:11:14;4.83;;;3.52;;
3747;SDS011;1889;50.058;8.688;2024-02-15T00:13:44;4.03;;;3.62;;
3747;SDS011;1889;50.058;8.688;2024-02-15T00:16:14;6.00;;;3.72;;
3747;SDS011;1889;50.058;8.688;2024-02-15T00:18:43;4.40;;;3.80;;
3747;SDS011;1889;50.058;8.688;2024-02-15T00:21:13;5.37;;;3.95;;
3747;SDS011;1889;50.058;8.688;2024-02-15T00:23:46;4.37;;;2.98;;
3747;SDS011;1889;50.058;8.688;2024-02-15T00:26:15;3.45;;;3.05;;
3747;SDS011;1889;50.058;8.688;2024-02-15T00:28:45;4.67;;;3.45;;
3747;SDS011;1889;50.058;8.688;2024-02-15T00:31:14;5.65;;;3.42;;
3747;SDS011;1889;50.058;8.688;2024-02-15T00:33:44;4.22;;;3.70;;
3747;SDS011;1889;50.058;8.688;2024-02-15T00:36:15;5.22;;;3.72;;
3747;SDS011;1889;50.058;8.688;2024-02-15T00:38:45;5.03;;;3.40;;
3747;SDS011;1889;50.058;8.688;2024-02-15T00:41:15;4.87;;;3.35;;
3747;SDS011;1889;50.058;8.688;2024-02-15T00:43:45;6.97;;;3.65;;
3747;SDS011;1889;50.058;8.688;2024-02-15T00:46:20;6.05;;;3.25;;
3747;SDS011;1889;50.058;8.688;2024-02-15T00:48:49;6.67;;;3.62;;
3747;SDS011;1889;50.058;8.688;2024-02-15T00:51:19;4.35;;;3.12;;
3747;SDS011;1889;50.058;8.688;2024-02-15T00:53:49;3.35;;;3.05;;
3747;SDS011;1889;50.058;8.688;2024-02-15T00:56:18;5.03;;;3.52;;
3747;SDS011;1889;50.058;8.688;2024-02-15T00:58:50;5.75;;;2.80;;
3747;SDS011;1889;50.058;8.688;2024-02-15T01:01:19;3.92;;;3.52;;
3747;SDS011;1889;50.058;8.688;2024-02-15T01:03:48;4.87;;;3.17;;
3747;SDS011;1889;50.058;8.688;2024-02-15T01:06:18;4.20;;;2.95;;
3747;SDS011;1889;50.058;8.688;2024-02-15T01:08:47;3.50;;;2.65;;
3747;SDS011;1889;50.058;8.688;2024-02-15T01:11:16;5.15;;;2.95;;
3747;SDS011;1889;50.058;8.688;2024-02-15T01:13:46;4.17;;;3.08;;
3747;SDS011;1889;50.058;8.688;2024-02-15T01:16:15;5.33;;;3.15;;
3747;SDS011;1889;50.058;8.688;2024-02-15T01:18:44;4.37;;;3.65;;
3747;SDS011;1889;50.058;8.688;2024-02-15T01:21:14;3.42;;;3.00;;
3747;SDS011;1889;50.058;8.688;2024-02-15T01:23:43;3.10;;;2.80;;
3747;SDS011;1889;50.058;8.688;2024-02-15T01:26:13;3.22;;;2.70;;
3747;SDS011;1889;50.058;8.688;2024-02-15T01:28:43;3.30;;;3.00;;
3747;SDS011;1889;50.058;8.688;2024-02-15T01:31:12;4.60;;;2.75;;
3747;SDS011;1889;50.058;8.688;2024-02-15T01:33:43;3.00;;;2.70;;
3747;SDS011;1889;50.058;8.688;2024-02-15T01:36:14;3.62;;;2.58;;
3747;SDS011;1889;50.058;8.688;2024-02-15T01:38:44;4.60;;;2.62;;
3747;SDS011;1889;50.058;8.688;2024-02-15T01:41:13;4.95;;;3.20;;
3747;SDS011;1889;50.058;8.688;2024-02-15T01:43:43;3.08;;;2.62;;
3747;SDS011;1889;50.058;8.688;2024-02-15T01:46:13;4.55;;;2.80;;
3747;SDS011;1889;50.058;8.688;2024-02-15T01:48:44;3.22;;;2.92;;
3747;SDS011;1889;50.058;8.688;2024-02-15T01:51:15;3.08;;;2.70;;
3747;SDS011;1889;50.058;8.688;2024-02-15T01:53:45;4.72;;;3.15;;
3747;SDS011;1889;50.058;8.688;2024-02-15T01:56:15;5.10;;;3.02;;
3747;SDS011;1889;50.058;8.688;2024-02-15T01:58:47;3.58;;;2.80;;
3747;SDS011;1889;50.058;8.688;2024-02-15T02:01:16;3.33;;;3.02;;
3747;SDS011;1889;50.058;8.688;2024-02-15T02:03:46;3.58;;;2.98;;
3747;SDS011;1889;50.058;8.688;2024-02-15T02:06:15;3.77;;;2.92;;
3747;SDS011;1889;50.058;8.688;2024-02-15T02:08:45;5.10;;;3.12;;
3747;SDS011;1889;50.058;8.688;2024-02-15T02:11:14;4.15;;;2.55;;
3747;SDS011;1889;50.058;8.688;2024-02-15T02:13:43;4.12;;;2.83;;
3747;SDS011;1889;50.058;8.688;2024-02-15T02:16:25;6.03;;;2.80;;
3747;SDS011;1889;50.058;8.688;2024-02-15T02:18:56;6.35;;;3.50;;
3747;SDS011;1889;50.058;8.688;2024-02-15T02:21:26;5.60;;;3.75;;
3747;SDS011;1889;50.058;8.688;2024-02-15T02:23:58;3.95;;;2.92;;
3747;SDS011;1889;50.058;8.688;2024-02-15T02:26:33;3.05;;;2.75;;
3747;SDS011;1889;50.058;8.688;2024-02-15T02:29:02;3.40;;;3.08;;
3747;SDS011;1889;50.058;8.688;2024-02-15T02:31:34;5.08;;;3.30;;
3747;SDS011;1889;50.058;8.688;2024-02-15T02:34:04;5.20;;;3.08;;
3747;SDS011;1889;50.058;8.688;2024-02-15T02:36:35;4.40;;;2.90;;
3747;SDS011;1889;50.058;8.688;2024-02-15T02:39:05;4.05;;;3.22;;
3747;SDS011;1889;50.058;8.688;2024-02-15T02:41:34;4.60;;;3.22;;
3747;SDS011;1889;50.058;8.688;2024-02-15T02:44:04;5.17;;;3.00;;
3747;SDS011;1889;50.058;8.688;2024-02-15T02:46:34;4.15;;;3.27;;
3747;SDS011;1889;50.058;8.688;2024-02-15T02:49:03;5.22;;;3.10;;
3747;SDS011;1889;50.058;8.688;2024-02-15T02:51:32;3.72;;;2.80;;
3747;SDS011;1889;50.058;8.688;2024-02-15T02:54:02;6.83;;;3.42;;
3747;SDS011;1889;50.058;8.688;2024-02-15T02:56:32;4.20;;;2.87;;
3747;SDS011;1889;50.058;8.688;2024-02-15T02:59:02;5.28;;;2.83;;
3747;SDS011;1889;50.058;8.688;2024-02-15T03:01:32;6.67;;;2.95;;
3747;SDS011;1889;50.058;8.688;2024-02-15T03:04:01;3.50;;;2.62;;
3747;SDS011;1889;50.058;8.688;2024-02-15T03:06:31;3.27;;;2.50;;
3747;SDS011;1889;50.058;8.688;2024-02-15T03:09:00;4.62;;;2.75;;
3747;SDS011;1889;50.058;8.688;2024-02-15T03:11:31;4.83;;;3.08;;
3747;SDS011;1889;50.058;8.688;2024-02-15T03:14:02;5.47;;;2.98;;
3747;SDS011;1889;50.058;8.688;2024-02-15T03:16:34;5.08;;;3.12;;
3747;SDS011;1889;50.058;8.688;2024-02-15T03:19:03;7.65;;;3.30;;
3747;SDS011;1889;50.058;8.688;2024-02-15T03:21:33;3.58;;;2.60;;
3747;SDS011;1889;50.058;8.688;2024-02-15T03:24:03;3.05;;;2.75;;
3747;SDS011;1889;50.058;8.688;2024-02-15T03:26:32;6.53;;;3.00;;
3747;SDS011;1889;50.058;8.688;2024-02-15T03:29:04;3.92;;;2.83;;
3747;SDS011;1889;50.058;8.688;2024-02-15T03:31:35;3.90;;;2.83;;
3747;SDS011;1889;50.058;8.688;2024-02-15T03:34:04;3.00;;;2.60;;
3747;SDS011;1889;50.058;8.688;2024-02-15T03:36:33;4.55;;;3.10;;
3747;SDS011;1889;50.058;8.688;2024-02-15T03:39:03;4.80;;;2.70;;
3747;SDS011;1889;50.058;8.688;2024-02-15T03:41:33;5.42;;;2.85;;
3747;SDS011;1889;50.058;8.688;2024-02-15T03:44:03;3.98;;;2.95;;
3747;SDS011;1889;50.058;8.688;2024-02-15T03:46:32;4.47;;;3.17;;
3747;SDS011;1889;50.058;8.688;2024-02-15T03:49:01;5.00;;;2.30;;
3747;SDS011;1889;50.058;8.688;2024-02-15T03:51:31;5.45;;;2.67;;
3747;SDS011;1889;50.058;8.688;2024-02-15T03:54:00;4.15;;;2.80;;
3747;SDS011;1889;50.058;8.688;2024-02-15T03:56:31;5.75;;;3.00;;
3747;SDS011;1889;50.058;8.688;2024-02-15T03:59:00;5.47;;;2.62;;
3747;SDS011;1889;50.058;8.688;2024-02-15T04:01:31;3.33;;;2.37;;
3747;SDS011;1889;50.058;8.688;2024-02-15T04:04:01;4.03;;;2.70;;
3747;SDS011;1889;50.058;8.688;2024-02-15T04:06:30;4.45;;;3.08;;
3747;SDS011;1889;50.058;8.688;2024-02-15T04:09:01;3.27;;;2.70;;
3747;SDS011;1889;50.058;8.688;2024-02-15T04:11:30;3.67;;;2.70;;
3747;SDS011;1889;50.058;8.688;2024-02-15T04:14:01;3.87;;;2.50;;
3747;SDS011;1889;50.058;8.688;2024-02-15T04:16:30;7.20;;;3.45;;
3747;SDS011;1889;50.058;8.688;2024-02-15T04:19:00;6.25;;;3.42;;
3747;SDS011;1889;50.058;8.688;2024-02-15T04:21:30;4.75;;;3.15;;
3747;SDS011;1889;50.058;8.688;2024-02-15T04:24:00;3.40;;;3.10;;
3747;SDS011;1889;50.058;8.688;2024-02-15T04:26:30;4.67;;;2.75;;
3747;SDS011;1889;50.058;8.688;2024-02-15T04:28:59;4.28;;;2.90;;
3747;SDS011;1889;50.058;8.688;2024-02-15T04:31:28;5.60;;;2.37;;
3747;SDS011;1889;50.058;8.688;2024-02-15T04:33:59;3.75;;;2.55;;
3747;SDS011;1889;50.058;8.688;2024-02-15T04:36:29;5.53;;;2.70;;
3747;SDS011;1889;50.058;8.688;2024-02-15T04:39:00;5.28;;;2.83;;
3747;SDS011;1889;50.058;8.688;2024-02-15T04:41:30;5.03;;;2.80;;
3747;SDS011;1889;50.058;8.688;2024-02-15T04:43:59;3.47;;;2.95;;
3747;SDS011;1889;50.058;8.688;2024-02-15T04:46:29;3.75;;;2.98;;
3747;SDS011;1889;50.058;8.688;2024-02-15T04:48:59;4.37;;;2.80;;
3747;SDS011;1889;50.058;8.688;2024-02-15T04:51:29;3.87;;;2.80;;
3747;SDS011;1889;50.058;8.688;2024-02-15T04:53:59;3.80;;;2.60;;
3747;SDS011;1889;50.058;8.688;2024-02-15T04:56:29;3.98;;;2.80;;
3747;SDS011;1889;50.058;8.688;2024-02-15T04:59:00;3.05;;;2.27;;
3747;SDS011;1889;50.058;8.688;2024-02-15T05:01:29;3.85;;;2.42;;
3747;SDS011;1889;50.058;8.688;2024-02-15T05:04:00;4.37;;;2.50;;
3747;SDS011;1889;50.058;8.688;2024-02-15T05:06:33;3.02;;;2.72;;
3747;SDS011;1889;50.058;8.688;2024-02-15T05:09:04;3.30;;;2.50;;
3747;SDS011;1889;50.058;8.688;2024-02-15T05:11:38;3.42;;;2.30;;
3747;SDS011;1889;50.058;8.688;2024-02-15T05:14:16;4.33;;;2.47;;
3747;SDS011;1889;50.058;8.688;2024-02-15T05:16:47;4.03;;;2.50;;
3747;SDS011;1889;50.058;8.688;2024-02-15T05:19:16;3.55;;;2.30;;
3747;SDS011;1889;50.058;8.688;2024-02-15T05:21:46;3.00;;;2.42;;
3747;SDS011;1889;50.058;8.688;2024-02-15T05:24:16;5.85;;;2.60;;
3747;SDS011;1889;50.058;8.688;2024-02-15T05:26:47;3.47;;;2.47;;
3747;SDS011;1889;50.058;8.688;2024-02-15T05:29:19;4.37;;;2.70;;
3747;SDS011;1889;50.058;8.688;2024-02-15T05:31:50;5.33;;;2.55;;
3747;SDS011;1889;50.058;8.688;2024-02-15T05:34:22;4.20;;;2.75;;
3747;SDS011;1889;50.058;8.688;2024-02-15T05:36:51;4.28;;;2.75;;
3747;SDS011;1889;50.058;8.688;2024-02-15T05:39:20;2.90;;;2.45;;
3747;SDS011;1889;50.058;8.688;2024-02-15T05:41:50;2.98;;;2.42;;
3747;SDS011;1889;50.058;8.688;2024-02-15T05:44:19;3.42;;;2.70;;
3747;SDS011;1889;50.058;8.688;2024-02-15T05:46:49;4.25;;;2.67;;
3747;SDS011;1889;50.058;8.688;2024-02-15T05:49:18;3.85;;;2.22;;
3747;SDS011;1889;50.058;8.688;2024-02-15T05:51:49;6.78;;;2.90;;
3747;SDS011;1889;50.058;8.688;2024-02-15T05:54:21;5.17;;;2.75;;
3747;SDS011;1889;50.058;8.688;2024-02-15T05:56:50;5.03;;;2.65;;
3747;SDS011;1889;50.058;8.688;2024-02-15T05:59:21;4.25;;;3.05;;
3747;SDS011;1889;50.058;8.688;2024-02-15T06:01:50;2.52;;;2.33;;
3747;SDS011;1889;50.058;8.688;2024-02-15T06:04:20;2.90;;;2.58;;
3747;SDS011;1889;50.058;8.688;2024-02-15T06:06:51;4.25;;;2.42;;
3747;SDS011;1889;50.058;8.688;2024-02-15T06:09:22;4.05;;;3.20;;
3747;SDS011;1889;50.058;8.688;2024-02-15T06:11:52;5.00;;;2.98;;
3747;SDS011;1889;50.058;8.688;2024-02-15T06:14:23;7.17;;;2.85;;
3747;SDS011;1889;50.058;8.688;2024-02-15T06:16:53;5.53;;;3.02;;
3747;SDS011;1889;50.058;8.688;2024-02-15T06:19:23;4.47;;;2.62;;
3747;SDS011;1889;50.058;8.688;2024-02-15T06:21:52;4.40;;;2.52;;
3747;SDS011;1889;50.058;8.688;2024-02-15T06:24:21;4.80;;;2.98;;
3747;SDS011;1889;50.058;8.688;2024-02-15T06:26:51;3.05;;;2.30;;
3747;SDS011;1889;50.058;8.688;2024-02-15T06:29:22;5.00;;;2.40;;
3747;SDS011;1889;50.058;8.688;2024-02-15T06:32:09;4.75;;;2.50;;
3747;SDS011;1889;50.058;8.688;2024-02-15T06:34:57;2.60;;;2.40;;
3747;SDS011;1889;50.058;8.688;2024-02-15T06:37:44;4.15;;;2.50;;
3747;SDS011;1889;50.058;8.688;2024-02-15T06:40:31;7.62;;;2.50;;
3747;SDS011;1889;50.058;8.688;2024-02-15T06:43:00;4.65;;;3.15;;
3747;SDS011;1889;50.058;8.688;2024-02-15T06:45:31;4.70;;;2.60;;
3747;SDS011;1889;50.058;8.688;2024-02-15T06:48:02;5.75;;;3.12;;
3747;SDS011;1889;50.058;8.688;2024-02-15T06:50:50;3.83;;;2.85;;
3747;SDS011;1889;50.058;8.688;2024-02-15T06:53:19;4.22;;;2.40;;
3747;SDS011;1889;50.058;8.688;2024-02-15T06:55:48;3.90;;;2.42;;
3747;SDS011;1889;50.058;8.688;2024-02-15T06:58:18;4.10;;;2.10;;
3747;SDS011;1889;50.058;8.688;2024-02-15T07:00:48;3.83;;;2.55;;
3747;SDS011;1889;50.058;8.688;2024-02-15T07:03:20;5.35;;;2.90;;
3747;SDS011;1889;50.058;8.688;2024-02-15T07:05:51;5.55;;;2.75;;
3747;SDS011;1889;50.058;8.688;2024-02-15T07:08:20;4.65;;;2.52;;
3747;SDS011;1889;50.058;8.688;2024-02-15T07:10:52;5.95;;;2.35;;
3747;SDS011;1889;50.058;8.688;2024-02-15T07:13:21;4.78;;;2.60;;
3747;SDS011;1889;50.058;8.688;2024-02-15T07:15:50;2.58;;;2.30;;
3747;SDS011;1889;50.058;8.688;2024-02-15T07:18:20;3.80;;;2.25;;
3747;SDS011;1889;50.058;8.688;2024-02-15T07:20:49;4.08;;;2.60;;
3747;SDS011;1889;50.058;8.688;2024-02-15T07:23:20;5.25;;;3.45;;
3747;SDS011;1889;50.058;8.688;2024-02-15T07:25:49;6.90;;;4.83;;
3747;SDS011;1889;50.058;8.688;2024-02-15T07:28:20;6.28;;;4.45;;
3747;SDS011;1889;50.058;8.688;2024-02-15T07:30:52;5.55;;;4.20;;
3747;SDS011;1889;50.058;8.688;2024-02-15T07:33:22;4.85;;;3.42;;
3747;SDS011;1889;50.058;8.688;2024-02-15T07:35:51;4.70;;;3.50;;
3747;SDS011;1889;50.058;8.688;2024-02-15T07:38:21;6.37;;;3.27;;
3747;SDS011;1889;50.058;8.688;2024-02-15T07:40:53;5.85;;;2.92;;
3747;SDS011;1889;50.058;8.688;2024-02-15T07:43:22;6.78;;;2.98;;
3747;SDS011;1889;50.058;8.688;2024-02-15T07:45:51;5.47;;;3.33;;
3747;SDS011;1889;50.058;8.688;2024-02-15T07:48:21;4.85;;;3.00;;
3747;SDS011;1889;50.058;8.688;2024-02-15T07:50:50;8.28;;;3.00;;
3747;SDS011;1889;50.058;8.688;2024-02-15T07:53:19;5.58;;;3.85;;
3747;SDS011;1889;50.058;8.688;2024-02-15T07:55:50;6.83;;;3.70;;
3747;SDS011;1889;50.058;8.688;2024-02-15T07:58:20;3.02;;;2.55;;
3747;SDS011;1889;50.058;8.688;2024-02-15T08:00:49;5.87;;;3.05;;
3747;SDS011;1889;50.058;8.688;2024-02-15T08:03:19;7.78;;;6.35;;
3747;SDS011;1889;50.058;8.688;2024-02-15T08:05:49;6.85;;;4.72;;
3747;SDS011;1889;50.058;8.688;2024-02-15T08:08:19;7.33;;;5.85;;
3747;SDS011;1889;50.058;8.688;2024-02-15T08:10:49;5.90;;;3.25;;
3747;SDS011;1889;50.058;8.688;2024-02-15T08:13:19;3.50;;;2.60;;
3747;SDS011;1889;50.058;8.688;2024-02-15T08:15:50;4.78;;;2.95;;
3747;SDS011;1889;50.058;8.688;2024-02-15T08:18:20;5.10;;;2.95;;
3747;SDS011;1889;50.058;8.688;2024-02-15T08:20:49;5.72;;;3.20;;
3747;SDS011;1889;50.058;8.688;2024-02-15T08:23:18;7.85;;;3.60;;
3747;SDS011;1889;50.058;8.688;2024-02-15T08:25:48;5.15;;;2.60;;
3747;SDS011;1889;50.058;8.688;2024-02-15T08:28:19;3.58;;;2.83;;
3747;SDS011;1889;50.058;8.688;2024-02-15T08:30:48;4.20;;;2.65;;
3747;SDS011;1889;50.058;8.688;2024-02-15T08:33:19;3.90;;;2.95;;
3747;SDS011;1889;50.058;8.688;2024-02-15T08:35:48;4.00;;;2.42;;
3747;SDS011;1889;50.058;8.688;2024-02-15T08:38:18;4.92;;;2.98;;
3747;SDS011;1889;50.058;8.688;2024-02-15T08:40:47;5.53;;;2.60;;
3747;SDS011;1889;50.058;8.688;2024-02-15T08:43:17;4.15;;;2.65;;
3747;SDS011;1889;50.058;8.688;2024-02-15T08:45:46;2.52;;;2.33;;
3747;SDS011;1889;50.058;8.688;2024-02-15T08:48:15;5.65;;;2.67;;
3747;SDS011;1889;50.058;8.688;2024-02-15T08:50:45;2.83;;;2.50;;
3747;SDS011;1889;50.058;8.688;2024-02-15T08:53:14;3.30;;;2.40;;
3747;SDS011;1889;50.058;8.688;2024-02-15T08:55:45;2.98;;;2.10;;
3747;SDS011;1889;50.058;8.688;2024-02-15T08:58:15;6.62;;;2.95;;
3747;SDS011;1889;50.058;8.688;2024-02-15T09:00:45;6.85;;;2.50;;
3747;SDS011;1889;50.058;8.688;2024-02-15T09:03:14;4.95;;;2.15;;
3747;SDS011;1889;50.058;8.688;2024-02-15T09:05:43;6.80;;;3.33;;
3747;SDS011;1889;50.058;8.688;2024-02-15T09:08:12;4.90;;;2.65;;
3747;SDS011;1889;50.058;8.688;2024-02-15T09:10:43;4.67;;;2.27;;
3747;SDS011;1889;50.058;8.688;2024-02-15T09:13:13;6.95;;;2.67;;
3747;SDS011;1889;50.058;8.688;2024-02-15T09:15:42;3.90;;;2.25;;
3747;SDS011;1889;50.058;8.688;2024-02-15T09:18:11;4.28;;;2.00;;
3747;SDS011;1889;50.058;8.688;2024-02-15T09:20:41;4.28;;;2.27;;
3747;SDS011;1889;50.058;8.688;2024-02-15T09:23:12;2.70;;;1.92;;
3747;SDS011;1889;50.058;8.688;2024-02-15T09:25:42;3.12;;;1.92;;
3747;SDS011;1889;50.058;8.688;2024-02-15T09:28:11;2.90;;;2.02;;
3747;SDS011;1889;50.058;8.688;2024-02-15T09:30:41;2.72;;;2.02;;
3747;SDS011;1889;50.058;8.688;2024-02-15T09:33:10;3.45;;;2.02;;
3747;SDS011;1889;50.058;8.688;2024-02-15T09:35:40;2.85;;;2.00;;
3747;SDS011;1889;50.058;8.688;2024-02-15T09:38:09;3.85;;;2.22;;
3747;SDS011;1889;50.058;8.688;2024-02-15T09:40:38;2.42;;;2.10;;
3747;SDS011;1889;50.058;8.688;2024-02-15T09:43:11;4.92;;;2.10;;
3747;SDS011;1889;50.058;8.688;2024-02-15T09:45:43;5.60;;;2.10;;
3747;SDS011;1889;50.058;8.688;2024-02-15T09:48:12;3.25;;;1.82;;
3747;SDS011;1889;50.058;8.688;2024-02-15T09:50:45;4.83;;;1.90;;
3747;SDS011;1889;50.058;8.688;2024-02-15T09:53:16;5.25;;;1.82;;
3747;SDS011;1889;50.058;8.688;2024-02-15T09:55:48;5.10;;;2.40;;
3747;SDS011;1889;50.058;8.688;2024-02-15T09:58:17;2.92;;;1.90;;
3747;SDS011;1889;50.058;8.688;2024-02-15T10:00:47;4.80;;;2.58;;
3747;SDS011;1889;50.058;8.688;2024-02-15T10:03:18;2.27;;;2.08;;
3747;SDS011;1889;50.058;8.688;2024-02-15T10:05:50;3.20;;;2.33;;
3747;SDS011;1889;50.058;8.688;2024-02-15T10:08:20;3.67;;;2.08;;
3747;SDS011;1889;50.058;8.688;2024-02-15T10:11:06;4.20;;;2.80;;
3747;SDS011;1889;50.058;8.688;2024-02-15T10:13:38;3.15;;;2.20;;
3747;SDS011;1889;50.058;8.688;2024-02-15T10:16:20;4.05;;;2.60;;
3747;SDS011;1889;50.058;8.688;2024-02-15T10:18:51;2.50;;;2.22;;
3747;SDS011;1889;50.058;8.688;2024-02-15T10:21:24;3.50;;;2.60;;
3747;SDS011;1889;50.058;8.688;2024-02-15T10:24:02;4.60;;;2.52;;
3747;SDS011;1889;50.058;8.688;2024-02-15T10:26:33;3.05;;;2.50;;
3747;SDS011;1889;50.058;8.688;2024-02-15T10:29:12;4.40;;;2.60;;
3747;SDS011;1889;50.058;8.688;2024-02-15T10:31:38;4.30;;;2.37;;
3747;SDS011;1889;50.058;8.688;2024-02-15T10:34:09;5.53;;;2.50;;
3747;SDS011;1889;50.058;8.688;2024-02-15T10:36:40;4.85;;;2.30;;
3747;SDS011;1889;50.058;8.688;2024-02-15T10:39:13;3.87;;;2.30;;
3747;SDS011;1889;50.058;8.688;2024-02-15T10:41:45;4.15;;;2.33;;
3747;SDS011;1889;50.058;8.688;2024-02-15T10:44:17;3.58;;;2.60;;
3747;SDS011;1889;50.058;8.688;2024-02-15T10:46:48;5.20;;;2.17;;
3747;SDS011;1889;50.058;8.688;2024-02-15T10:49:22;6.10;;;1.98;;
3747;SDS011;1889;50.058;8.688;2024-02-15T10:51:56;2.92;;;1.95;;
3747;SDS011;1889;50.058;8.688;2024-02-15T10:57:14;3.55;;;1.87;;
3747;SDS011;1889;50.058;8.688;2024-02-15T10:59:53;4.92;;;2.20;;
3747;SDS011;1889;50.058;8.688;2024-02-15T11:05:10;5.20;;;2.00;;
3747;SDS011;1889;50.058;8.688;2024-02-15T11:07:42;4.62;;;2.40;;
3747;SDS011;1889;50.058;8.688;2024-02-15T11:10:11;4.10;;;2.20;;
3747;SDS011;1889;50.058;8.688;2024-02-15T11:12:43;3.60;;;1.95;;
3747;SDS011;1889;50.058;8.688;2024-02-15T11:15:12;6.83;;;2.22;;
3747;SDS011;1889;50.058;8.688;2024-02-15T11:17:45;10.55;;;2.22;;
3747;SDS011;1889;50.058;8.688;2024-02-15T11:23:05;3.62;;;2.00;;
3747;SDS011;1889;50.058;8.688;2024-02-15T11:25:37;2.05;;;1.67;;
3747;SDS011;1889;50.058;8.688;2024-02-15T11:30:55;2.87;;;2.00;;
3747;SDS011;1889;50.058;8.688;2024-02-15T11:33:29;5.65;;;2.00;;
3747;SDS011;1889;50.058;8.688;2024-02-15T11:36:11;3.90;;;1.87;;
3747;SDS011;1889;50.058;8.688;2024-02-15T11:38:41;1.72;;;1.42;;
3747;SDS011;1889;50.058;8.688;2024-02-15T11:41:17;4.55;;;1.50;;
3747;SDS011;1889;50.058;8.688;2024-02-15T11:43:46;4.90;;;1.65;;
3747;SDS011;1889;50.058;8.688;2024-02-15T11:46:30;4.92;;;1.87;;
3747;SDS011;1889;50.058;8.688;2024-02-15T11:49:16;2.72;;;1.37;;
3747;SDS011;1889;50.058;8.688;2024-02-15T11:51:46;2.10;;;1.42;;
3747;SDS011;1889;50.058;8.688;2024-02-15T11:54:19;4.40;;;1.67;;
3747;SDS011;1889;50.058;8.688;2024-02-15T11:56:52;3.62;;;1.40;;
3747;SDS011;1889;50.058;8.688;2024-02-15T11:59:40;1.50;;;1.37;;
3747;SDS011;1889;50.058;8.688;2024-02-15T12:02:12;4.05;;;1.42;;
3747;SDS011;1889;50.058;8.688;2024-02-15T12:04:59;4.05;;;1.60;;
3747;SDS011;1889;50.058;8.688;2024-02-15T12:07:46;4.10;;;1.42;;
3747;SDS011;1889;50.058;8.688;2024-02-15T12:10:40;5.80;;;1.98;;
3747;SDS011;1889;50.058;8.688;2024-02-15T12:13:27;3.90;;;1.70;;
3747;SDS011;1889;50.058;8.688;2024-02-15T12:16:15;3.37;;;1.60;;
3747;SDS011;1889;50.058;8.688;2024-02-15T12:19:02;2.75;;;1.37;;
3747;SDS011;1889;50.058;8.688;2024-02-15T12:21:32;2.25;;;1.52;;
3747;SDS011;1889;50.058;8.688;2024-02-15T12:24:01;5.95;;;1.60;;
3747;SDS011;1889;50.058;8.688;2024-02-15T12:26:32;2.92;;;1.60;;
3747;SDS011;1889;50.058;8.688;2024-02-15T12:29:04;3.22;;;1.40;;
3747;SDS011;1889;50.058;8.688;2024-02-15T12:31:35;2.25;;;1.45;;
3747;SDS011;1889;50.058;8.688;2024-02-15T12:34:18;2.62;;;1.20;;
3747;SDS011;1889;50.058;8.688;2024-02-15T12:36:49;4.62;;;1.50;;
3747;SDS011;1889;50.058;8.688;2024-02-15T12:39:26;2.52;;;1.72;;
3747;SDS011;1889;50.058;8.688;2024-02-15T12:41:59;2.37;;;1.62;;
3747;SDS011;1889;50.058;8.688;2024-02-15T12:44:29;1.65;;;1.42;;
3747;SDS011;1889;50.058;8.688;2024-02-15T12:47:00;8.70;;;2.17;;
3747;SDS011;1889;50.058;8.688;2024-02-15T12:49:30;2.02;;;1.22;;
3747;SDS011;1889;50.058;8.688;2024-02-15T12:55:16;2.12;;;1.32;;
3747;SDS011;1889;50.058;8.688;2024-02-15T12:57:46;1.80;;;1.22;;
3747;SDS011;1889;50.058;8.688;2024-02-15T13:00:21;1.85;;;1.50;;
3747;SDS011;1889;50.058;8.688;2024-02-15T13:03:01;3.67;;;1.50;;
3747;SDS011;1889;50.058;8.688;2024-02-15T13:05:43;4.12;;;1.30;;
3747;SDS011;1889;50.058;8.688;2024-02-15T13:08:24;3.72;;;1.77;;
3747;SDS011;1889;50.058;8.688;2024-02-15T13:10:54;2.80;;;1.22;;
3747;SDS011;1889;50.058;8.688;2024-02-15T13:13:24;4.25;;;1.35;;
3747;SDS011;1889;50.058;8.688;2024-02-15T13:15:55;3.25;;;1.30;;
3747;SDS011;1889;50.058;8.688;2024-02-15T13:18:25;2.95;;;1.12;;
3747;SDS011;1889;50.058;8.688;2024-02-15T13:20:57;4.47;;;1.20;;
3747;SDS011;1889;50.058;8.688;2024-02-15T13:23:26;2.05;;;1.22;;
3747;SDS011;1889;50.058;8.688;2024-02-15T13:26:04;4.25;;;1.85;;
3747;SDS011;1889;50.058;8.688;2024-02-15T13:28:35;2.85;;;1.10;;
3747;SDS011;1889;50.058;8.688;2024-02-15T13:31:11;1.57;;;1.30;;
3747;SDS011;1889;50.058;8.688;2024-02-15T13:33:40;2.25;;;0.98;;
3747;SDS011;1889;50.058;8.688;2024-02-15T13:36:14;4.87;;;1.20;;
3747;SDS011;1889;50.058;8.688;2024-02-15T13:38:47;4.15;;;1.50;;
3747;SDS011;1889;50.058;8.688;2024-02-15T13:41:31;3.98;;;1.40;;
3747;SDS011;1889;50.058;8.688;2024-02-15T13:44:00;4.15;;;1.30;;
3747;SDS011;1889;50.058;8.688;2024-02-15T13:46:32;3.65;;;1.87;;
3747;SDS011;1889;50.058;8.688;2024-02-15T13:49:01;3.22;;;1.52;;
3747;SDS011;1889;50.058;8.688;2024-02-15T13:51:37;4.67;;;1.10;;
3747;SDS011;1889;50.058;8.688;2024-02-15T13:54:07;3.52;;;1.42;;
3747;SDS011;1889;50.058;8.688;2024-02-15T13:56:37;3.02;;;1.37;;
3747;SDS011;1889;50.058;8.688;2024-02-15T13:59:08;4.37;;;1.55;;
3747;SDS011;1889;50.058;8.688;2024-02-15T14:01:43;1.77;;;1.35;;
3747;SDS011;1889;50.058;8.688;2024-02-15T14:04:12;5.42;;;1.50;;
3747;SDS011;1889;50.058;8.688;2024-02-15T14:06:41;6.90;;;2.33;;
3747;SDS011;1889;50.058;8.688;2024-02-15T14:09:14;1.45;;;1.27;;
3747;SDS011;1889;50.058;8.688;2024-02-15T14:11:46;4.85;;;1.80;;
3747;SDS011;1889;50.058;8.688;2024-02-15T14:14:15;2.75;;;1.30;;
3747;SDS011;1889;50.058;8.688;2024-02-15T14:16:54;5.58;;;1.85;;
3747;SDS011;1889;50.058;8.688;2024-02-15T14:19:24;2.37;;;1.40;;
3747;SDS011;1889;50.058;8.688;2024-02-15T14:21:57;2.65;;;1.17;;
3747;SDS011;1889;50.058;8.688;2024-02-15T14:24:26;7.58;;;1.62;;
3747;SDS011;1889;50.058;8.688;2024-02-15T14:26:56;2.98;;;1.40;;
3747;SDS011;1889;50.058;8.688;2024-02-15T14:29:26;2.90;;;1.62;;
3747;SDS011;1889;50.058;8.688;2024-02-15T14:31:57;3.02;;;1.57;;
3747;SDS011;1889;50.058;8.688;2024-02-15T14:34:44;2.65;;;1.42;;
3747;SDS011;1889;50.058;8.688;2024-02-15T14:37:14;2.58;;;1.30;;
3747;SDS011;1889;50.058;8.688;2024-02-15T14:39:44;6.70;;;1.77;;
3747;SDS011;1889;50.058;8.688;2024-02-15T14:42:14;2.85;;;1.80;;
3747;SDS011;1889;50.058;8.688;2024-02-15T14:44:43;3.50;;;1.72;;
3747;SDS011;1889;50.058;8.688;2024-02-15T14:47:17;3.22;;;1.42;;
3747;SDS011;1889;50.058;8.688;2024-02-15T14:49:47;2.33;;;1.30;;
3747;SDS011;1889;50.058;8.688;2024-02-15T14:52:17;3.55;;;1.50;;
3747;SDS011;1889;50.058;8.688;2024-02-15T14:54:54;1.92;;;1.65;;
3747;SDS011;1889;50.058;8.688;2024-02-15T14:57:24;5.55;;;2.00;;
3747;SDS011;1889;50.058;8.688;2024-02-15T14:59:55;2.40;;;1.50;;
3747;SDS011;1889;50.058;8.688;2024-02-15T15:05:07;3.58;;;1.80;;
3747;SDS011;1889;50.058;8.688;2024-02-15T15:07:57;3.65;;;1.65;;
3747;SDS011;1889;50.058;8.688;2024-02-15T15:10:55;16.12;;;2.77;;
3747;SDS011;1889;50.058;8.688;2024-02-15T15:13:43;1.62;;;1.20;;
3747;SDS011;1889;50.058;8.688;2024-02-15T15:16:22;2.35;;;1.52;;
3747;SDS011;1889;50.058;8.688;2024-02-15T15:18:53;3.90;;;1.62;;
3747;SDS011;1889;50.058;8.688;2024-02-15T15:21:26;4.92;;;1.60;;
3747;SDS011;1889;50.058;8.688;2024-02-15T15:24:05;1.87;;;1.30;;
3747;SDS011;1889;50.058;8.688;2024-02-15T15:26:40;3.00;;;2.10;;
3747;SDS011;1889;50.058;8.688;2024-02-15T15:29:20;4.67;;;3.12;;
3747;SDS011;1889;50.058;8.688;2024-02-15T15:32:03;4.62;;;1.60;;
3747;SDS011;1889;50.058;8.688;2024-02-15T15:34:41;5.37;;;2.58;;
3747;SDS011;1889;50.058;8.688;2024-02-15T15:37:21;4.33;;;2.80;;
3747;SDS011;1889;50.058;8.688;2024-02-15T15:39:58;7.70;;;4.00;;
3747;SDS011;1889;50.058;8.688;2024-02-15T15:45:14;6.33;;;3.15;;
3747;SDS011;1889;50.058;8.688;2024-02-15T15:48:03;3.10;;;2.75;;
3747;SDS011;1889;50.058;8.688;2024-02-15T15:50:35;4.75;;;3.10;;
3747;SDS011;1889;50.058;8.688;2024-02-15T15:53:04;6.97;;;3.45;;
3747;SDS011;1889;50.058;8.688;2024-02-15T15:55:34;5.22;;;2.87;;
3747;SDS011;1889;50.058;8.688;2024-02-15T15:58:04;5.28;;;2.52;;
3747;SDS011;1889;50.058;8.688;2024-02-15T16:00:33;4.85;;;2.45;;
3747;SDS011;1889;50.058;8.688;2024-02-15T16:03:04;4.92;;;2.20;;
3747;SDS011;1889;50.058;8.688;2024-02-15T16:05:36;5.22;;;2.12;;